Ana Sayfa
METAR-TAF:

METAR-TAF

Havaalanları :

Delta County Airport

Escanaba, Michigan, Amerika Birleşik Devletleri

Enlem: 45-45N, Boylam: 087-02W, yükseklik: 180 m

Güncel hava durumu gözlemi

Rapor saat 21:56 UTC de 34 dakika önce yapıldı.
Rüzgar güney/güneydoğudan 5 kt
Sıcaklık 14°C
Nem 44%
Basınç 1021 hPa
Görüş mesafesi: 16.1 km
Açık gökyüzü

METAR: KESC 212156Z AUTO 16005KT 10SM CLR 14/02 A3016 RMK AO2 SLP219 T01440022

Saat: 18:30 (22:30 UTC)


TAF: eksik

4.000'den fazla havaalanı için hava durumu gözlemleri ve tahminleri (METAR ve TAF raporları).

Kullanılabilir istasyonlar harita üzerinde sarı ve kırmızı noktalarla gösterilir.

İstasyonun adını görmek için fareyi noktanın üzerinde gezdirin.

Sonrasında hava gözlem ve tahminlerini görmek için tıklayın.

Haritayı değiştirmek için: yaklaştırmak için siyah artı işaretli yeşil düğmeye ve uzaklaştırmak için de eksi işaretli düğmeye hızla tıklayın; bitişik haritalar için yeşil okları kullanın.


METAR-TAF: